sensor_id;sensor_type;location;lat;lon;timestamp;pressure;altitude;pressure_sealevel;temperature;humidity
21877;BME280;11103;43.788;23.710;2023-03-14T00:01:14;-14922.56;;;-144.67;100.00
21877;BME280;11103;43.788;23.710;2023-03-14T00:03:40;-14922.56;;;-144.67;100.00
21877;BME280;11103;43.788;23.710;2023-03-14T00:06:07;-14922.56;;;-144.67;100.00
21877;BME280;11103;43.788;23.710;2023-03-14T00:08:32;-14922.56;;;-144.67;100.00
21877;BME280;11103;43.788;23.710;2023-03-14T00:10:58;-14922.56;;;-144.67;100.00
21877;BME280;11103;43.788;23.710;2023-03-14T00:13:28;-14922.56;;;-144.67;100.00
21877;BME280;11103;43.788;23.710;2023-03-14T00:15:54;-14922.56;;;-144.67;100.00
21877;BME280;11103;43.788;23.710;2023-03-14T00:18:19;-14922.56;;;-144.67;100.00
21877;BME280;11103;43.788;23.710;2023-03-14T00:20:45;-14922.56;;;-144.67;100.00
21877;BME280;11103;43.788;23.710;2023-03-14T00:23:10;-14922.56;;;-144.67;100.00
21877;BME280;11103;43.788;23.710;2023-03-14T00:25:35;-14922.56;;;-144.67;100.00
21877;BME280;11103;43.788;23.710;2023-03-14T00:28:01;-14922.56;;;-144.67;100.00
21877;BME280;11103;43.788;23.710;2023-03-14T00:30:26;-14922.56;;;-144.67;100.00
21877;BME280;11103;43.788;23.710;2023-03-14T00:32:51;-14922.56;;;-144.67;100.00
21877;BME280;11103;43.788;23.710;2023-03-14T00:35:17;-14922.56;;;-144.67;100.00
21877;BME280;11103;43.788;23.710;2023-03-14T00:37:42;-14922.56;;;-144.67;100.00
21877;BME280;11103;43.788;23.710;2023-03-14T00:40:08;-14922.56;;;-144.67;100.00
21877;BME280;11103;43.788;23.710;2023-03-14T00:42:34;-14922.56;;;-144.67;100.00
21877;BME280;11103;43.788;23.710;2023-03-14T00:45:00;-14922.56;;;-144.67;100.00
21877;BME280;11103;43.788;23.710;2023-03-14T00:47:25;-14922.56;;;-144.67;100.00
21877;BME280;11103;43.788;23.710;2023-03-14T00:49:50;-14922.56;;;-144.67;100.00
21877;BME280;11103;43.788;23.710;2023-03-14T00:52:16;-14922.56;;;-144.67;100.00
21877;BME280;11103;43.788;23.710;2023-03-14T00:54:41;-14922.56;;;-144.67;100.00
21877;BME280;11103;43.788;23.710;2023-03-14T00:57:07;-14922.56;;;-144.67;100.00
21877;BME280;11103;43.788;23.710;2023-03-14T00:59:32;-14922.56;;;-144.67;100.00
21877;BME280;11103;43.788;23.710;2023-03-14T01:01:58;-14922.56;;;-144.67;100.00
21877;BME280;11103;43.788;23.710;2023-03-14T01:04:24;-14922.56;;;-144.67;100.00
21877;BME280;11103;43.788;23.710;2023-03-14T01:06:49;-14922.56;;;-144.67;100.00
21877;BME280;11103;43.788;23.710;2023-03-14T01:09:14;-14922.56;;;-144.67;100.00
21877;BME280;11103;43.788;23.710;2023-03-14T01:11:43;-14922.56;;;-144.67;100.00
21877;BME280;11103;43.788;23.710;2023-03-14T01:14:12;-14922.56;;;-144.67;100.00
21877;BME280;11103;43.788;23.710;2023-03-14T01:16:37;-14922.56;;;-144.67;100.00
21877;BME280;11103;43.788;23.710;2023-03-14T01:19:03;-14922.56;;;-144.67;100.00
21877;BME280;11103;43.788;23.710;2023-03-14T01:21:31;-14922.56;;;-144.67;100.00
21877;BME280;11103;43.788;23.710;2023-03-14T01:23:59;-14922.56;;;-144.67;100.00
21877;BME280;11103;43.788;23.710;2023-03-14T01:26:28;-14922.56;;;-144.67;100.00
21877;BME280;11103;43.788;23.710;2023-03-14T01:28:55;-14922.56;;;-144.67;100.00
21877;BME280;11103;43.788;23.710;2023-03-14T01:31:21;-14922.56;;;-144.67;100.00
21877;BME280;11103;43.788;23.710;2023-03-14T01:33:46;-14922.56;;;-144.67;100.00
21877;BME280;11103;43.788;23.710;2023-03-14T01:36:12;-14922.56;;;-144.67;100.00
21877;BME280;11103;43.788;23.710;2023-03-14T01:38:39;-14922.56;;;-144.67;100.00
21877;BME280;11103;43.788;23.710;2023-03-14T01:41:06;-14922.56;;;-144.67;100.00
21877;BME280;11103;43.788;23.710;2023-03-14T01:43:32;-14922.56;;;-144.67;100.00
21877;BME280;11103;43.788;23.710;2023-03-14T01:51:56;-14922.56;;;-144.67;100.00
21877;BME280;11103;43.788;23.710;2023-03-14T01:56:53;-14922.56;;;-144.67;100.00
21877;BME280;11103;43.788;23.710;2023-03-14T01:59:21;-14922.56;;;-144.67;100.00
21877;BME280;11103;43.788;23.710;2023-03-14T02:01:47;-14922.56;;;-144.67;100.00
21877;BME280;11103;43.788;23.710;2023-03-14T02:04:16;-14922.56;;;-144.67;100.00
21877;BME280;11103;43.788;23.710;2023-03-14T02:06:48;-14922.56;;;-144.67;100.00
21877;BME280;11103;43.788;23.710;2023-03-14T02:09:15;-14922.56;;;-144.67;100.00
21877;BME280;11103;43.788;23.710;2023-03-14T02:11:41;-14922.56;;;-144.67;100.00
21877;BME280;11103;43.788;23.710;2023-03-14T02:14:09;-14922.56;;;-144.67;100.00
21877;BME280;11103;43.788;23.710;2023-03-14T02:16:40;-14922.56;;;-144.67;100.00
21877;BME280;11103;43.788;23.710;2023-03-14T02:19:06;-14922.56;;;-144.67;100.00
21877;BME280;11103;43.788;23.710;2023-03-14T02:24:36;-14922.56;;;-144.67;100.00
21877;BME280;11103;43.788;23.710;2023-03-14T02:27:16;-14922.56;;;-144.67;100.00
21877;BME280;11103;43.788;23.710;2023-03-14T02:30:13;-14922.56;;;-144.67;100.00
21877;BME280;11103;43.788;23.710;2023-03-14T02:32:43;-14922.56;;;-144.67;100.00
21877;BME280;11103;43.788;23.710;2023-03-14T02:35:12;-14922.56;;;-144.67;100.00
21877;BME280;11103;43.788;23.710;2023-03-14T02:38:00;-14922.56;;;-144.67;100.00
21877;BME280;11103;43.788;23.710;2023-03-14T02:40:28;-14922.56;;;-144.67;100.00
21877;BME280;11103;43.788;23.710;2023-03-14T02:42:53;-14922.56;;;-144.67;100.00
21877;BME280;11103;43.788;23.710;2023-03-14T02:47:53;-14922.56;;;-144.67;100.00
21877;BME280;11103;43.788;23.710;2023-03-14T02:50:22;-14922.56;;;-144.67;100.00
21877;BME280;11103;43.788;23.710;2023-03-14T02:52:49;-14922.56;;;-144.67;100.00
21877;BME280;11103;43.788;23.710;2023-03-14T02:55:23;-14922.56;;;-144.67;100.00
21877;BME280;11103;43.788;23.710;2023-03-14T02:57:48;-14922.56;;;-144.67;100.00
21877;BME280;11103;43.788;23.710;2023-03-14T03:00:14;-14922.56;;;-144.67;100.00
21877;BME280;11103;43.788;23.710;2023-03-14T03:02:40;-14922.56;;;-144.67;100.00
21877;BME280;11103;43.788;23.710;2023-03-14T03:05:05;-14922.56;;;-144.67;100.00
21877;BME280;11103;43.788;23.710;2023-03-14T03:07:31;-14922.56;;;-144.67;100.00
21877;BME280;11103;43.788;23.710;2023-03-14T03:09:56;-14922.56;;;-144.67;100.00
21877;BME280;11103;43.788;23.710;2023-03-14T03:12:22;-14922.56;;;-144.67;100.00
21877;BME280;11103;43.788;23.710;2023-03-14T03:14:47;-14922.56;;;-144.67;100.00
21877;BME280;11103;43.788;23.710;2023-03-14T03:17:12;-14922.56;;;-144.67;100.00
21877;BME280;11103;43.788;23.710;2023-03-14T03:19:38;-14922.56;;;-144.67;100.00
21877;BME280;11103;43.788;23.710;2023-03-14T03:22:03;-14922.56;;;-144.67;100.00
21877;BME280;11103;43.788;23.710;2023-03-14T03:24:28;-14922.56;;;-144.67;100.00
21877;BME280;11103;43.788;23.710;2023-03-14T03:26:54;-14922.56;;;-144.67;100.00
21877;BME280;11103;43.788;23.710;2023-03-14T03:29:19;-14922.56;;;-144.67;100.00
21877;BME280;11103;43.788;23.710;2023-03-14T03:31:45;-14922.56;;;-144.67;100.00
21877;BME280;11103;43.788;23.710;2023-03-14T03:34:11;-14922.56;;;-144.67;100.00
21877;BME280;11103;43.788;23.710;2023-03-14T03:36:37;-14922.56;;;-144.67;100.00
21877;BME280;11103;43.788;23.710;2023-03-14T03:39:03;-14922.56;;;-144.67;100.00
21877;BME280;11103;43.788;23.710;2023-03-14T03:41:29;-14922.56;;;-144.67;100.00
21877;BME280;11103;43.788;23.710;2023-03-14T03:43:55;-14922.56;;;-144.67;100.00
21877;BME280;11103;43.788;23.710;2023-03-14T03:46:21;-14922.56;;;-144.67;100.00
21877;BME280;11103;43.788;23.710;2023-03-14T03:48:46;-14922.56;;;-144.67;100.00
21877;BME280;11103;43.788;23.710;2023-03-14T03:51:13;-14922.56;;;-144.67;100.00
21877;BME280;11103;43.788;23.710;2023-03-14T03:53:39;-14922.56;;;-144.67;100.00
21877;BME280;11103;43.788;23.710;2023-03-14T03:56:05;-14922.56;;;-144.67;100.00
21877;BME280;11103;43.788;23.710;2023-03-14T03:58:30;-14922.56;;;-144.67;100.00
21877;BME280;11103;43.788;23.710;2023-03-14T04:00:56;-14922.56;;;-144.67;100.00
21877;BME280;11103;43.788;23.710;2023-03-14T04:03:21;-14922.56;;;-144.67;100.00
21877;BME280;11103;43.788;23.710;2023-03-14T04:05:57;-14922.56;;;-144.67;100.00
21877;BME280;11103;43.788;23.710;2023-03-14T04:08:23;-14922.56;;;-144.67;100.00
21877;BME280;11103;43.788;23.710;2023-03-14T04:10:48;-14922.56;;;-144.67;100.00
21877;BME280;11103;43.788;23.710;2023-03-14T04:13:14;-14922.56;;;-144.67;100.00
21877;BME280;11103;43.788;23.710;2023-03-14T04:15:39;-14922.56;;;-144.67;100.00
21877;BME280;11103;43.788;23.710;2023-03-14T04:18:05;-14922.56;;;-144.67;100.00
21877;BME280;11103;43.788;23.710;2023-03-14T04:20:30;-14922.56;;;-144.67;100.00
21877;BME280;11103;43.788;23.710;2023-03-14T04:22:55;-14922.56;;;-144.67;100.00
21877;BME280;11103;43.788;23.710;2023-03-14T04:25:21;-14922.56;;;-144.67;100.00
21877;BME280;11103;43.788;23.710;2023-03-14T04:27:47;-14922.56;;;-144.67;100.00
21877;BME280;11103;43.788;23.710;2023-03-14T04:30:12;-14922.56;;;-144.67;100.00
21877;BME280;11103;43.788;23.710;2023-03-14T04:32:39;-14922.56;;;-144.67;100.00
21877;BME280;11103;43.788;23.710;2023-03-14T04:35:04;-14922.56;;;-144.67;100.00
21877;BME280;11103;43.788;23.710;2023-03-14T04:37:30;-14922.56;;;-144.67;100.00
21877;BME280;11103;43.788;23.710;2023-03-14T04:39:55;-14922.56;;;-144.67;100.00
21877;BME280;11103;43.788;23.710;2023-03-14T04:42:21;-14922.56;;;-144.67;100.00
21877;BME280;11103;43.788;23.710;2023-03-14T04:44:46;-14922.56;;;-144.67;100.00
21877;BME280;11103;43.788;23.710;2023-03-14T04:47:14;-14922.56;;;-144.67;100.00
21877;BME280;11103;43.788;23.710;2023-03-14T04:49:39;-14922.56;;;-144.67;100.00
21877;BME280;11103;43.788;23.710;2023-03-14T04:52:05;-14922.56;;;-144.67;100.00
21877;BME280;11103;43.788;23.710;2023-03-14T04:54:30;-14922.56;;;-144.67;100.00
21877;BME280;11103;43.788;23.710;2023-03-14T04:56:56;-14922.56;;;-144.67;100.00
21877;BME280;11103;43.788;23.710;2023-03-14T04:59:21;-14922.56;;;-144.67;100.00
21877;BME280;11103;43.788;23.710;2023-03-14T05:01:47;-14922.56;;;-144.67;100.00
21877;BME280;11103;43.788;23.710;2023-03-14T05:04:13;-14922.56;;;-144.67;100.00
21877;BME280;11103;43.788;23.710;2023-03-14T05:06:39;-14922.56;;;-144.67;100.00
21877;BME280;11103;43.788;23.710;2023-03-14T05:09:05;-14922.56;;;-144.67;100.00
21877;BME280;11103;43.788;23.710;2023-03-14T05:11:30;-14922.56;;;-144.67;100.00
21877;BME280;11103;43.788;23.710;2023-03-14T05:13:55;-14922.56;;;-144.67;100.00
21877;BME280;11103;43.788;23.710;2023-03-14T05:16:21;-14922.56;;;-144.67;100.00
21877;BME280;11103;43.788;23.710;2023-03-14T05:18:46;-14922.56;;;-144.67;100.00
21877;BME280;11103;43.788;23.710;2023-03-14T05:21:11;-14922.56;;;-144.67;100.00
21877;BME280;11103;43.788;23.710;2023-03-14T05:23:37;-14922.56;;;-144.67;100.00
21877;BME280;11103;43.788;23.710;2023-03-14T05:26:02;-14922.56;;;-144.67;100.00
21877;BME280;11103;43.788;23.710;2023-03-14T05:28:28;-14922.56;;;-144.67;100.00
21877;BME280;11103;43.788;23.710;2023-03-14T05:30:53;-14922.56;;;-144.67;100.00
21877;BME280;11103;43.788;23.710;2023-03-14T05:33:19;-14922.56;;;-144.67;100.00
21877;BME280;11103;43.788;23.710;2023-03-14T05:35:44;-14922.56;;;-144.67;100.00
21877;BME280;11103;43.788;23.710;2023-03-14T05:38:09;-14922.56;;;-144.67;100.00
21877;BME280;11103;43.788;23.710;2023-03-14T05:40:35;-14922.56;;;-144.67;100.00
21877;BME280;11103;43.788;23.710;2023-03-14T05:43:00;-14922.56;;;-144.67;100.00
21877;BME280;11103;43.788;23.710;2023-03-14T05:45:26;-14922.56;;;-144.67;100.00
21877;BME280;11103;43.788;23.710;2023-03-14T05:47:52;-14922.56;;;-144.67;100.00
21877;BME280;11103;43.788;23.710;2023-03-14T05:50:17;-14922.56;;;-144.67;100.00
21877;BME280;11103;43.788;23.710;2023-03-14T05:52:43;-14922.56;;;-144.67;100.00
21877;BME280;11103;43.788;23.710;2023-03-14T05:55:08;-14922.56;;;-144.67;100.00
21877;BME280;11103;43.788;23.710;2023-03-14T05:57:34;-14922.56;;;-144.67;100.00
21877;BME280;11103;43.788;23.710;2023-03-14T05:59:59;-14922.56;;;-144.67;100.00
21877;BME280;11103;43.788;23.710;2023-03-14T06:02:24;-14922.56;;;-144.67;100.00
21877;BME280;11103;43.788;23.710;2023-03-14T06:04:50;-14922.56;;;-144.67;100.00
21877;BME280;11103;43.788;23.710;2023-03-14T06:07:15;-14922.56;;;-144.67;100.00
21877;BME280;11103;43.788;23.710;2023-03-14T06:09:41;-14922.56;;;-144.67;100.00
21877;BME280;11103;43.788;23.710;2023-03-14T06:12:06;-14922.56;;;-144.67;100.00
21877;BME280;11103;43.788;23.710;2023-03-14T06:14:32;-14922.56;;;-144.67;100.00
21877;BME280;11103;43.788;23.710;2023-03-14T06:16:57;-14922.56;;;-144.67;100.00
21877;BME280;11103;43.788;23.710;2023-03-14T06:19:25;-14922.56;;;-144.67;100.00
21877;BME280;11103;43.788;23.710;2023-03-14T06:21:50;-14922.56;;;-144.67;100.00
21877;BME280;11103;43.788;23.710;2023-03-14T06:24:16;-14922.56;;;-144.67;100.00
21877;BME280;11103;43.788;23.710;2023-03-14T06:26:41;-14922.56;;;-144.67;100.00
21877;BME280;11103;43.788;23.710;2023-03-14T06:29:06;-14922.56;;;-144.67;100.00
21877;BME280;11103;43.788;23.710;2023-03-14T06:31:32;-14922.56;;;-144.67;100.00
21877;BME280;11103;43.788;23.710;2023-03-14T06:33:58;-14922.56;;;-144.67;100.00
21877;BME280;11103;43.788;23.710;2023-03-14T06:36:24;-14922.56;;;-144.67;100.00
21877;BME280;11103;43.788;23.710;2023-03-14T06:38:50;-14922.56;;;-144.67;100.00
21877;BME280;11103;43.788;23.710;2023-03-14T06:41:15;-14922.56;;;-144.67;100.00
21877;BME280;11103;43.788;23.710;2023-03-14T06:43:41;-14922.56;;;-144.67;100.00
21877;BME280;11103;43.788;23.710;2023-03-14T06:46:06;-14922.56;;;-144.67;100.00
21877;BME280;11103;43.788;23.710;2023-03-14T06:48:32;-14922.56;;;-144.67;100.00
21877;BME280;11103;43.788;23.710;2023-03-14T06:50:57;-14922.56;;;-144.67;100.00
21877;BME280;11103;43.788;23.710;2023-03-14T06:53:22;-14922.56;;;-144.67;100.00
21877;BME280;11103;43.788;23.710;2023-03-14T06:55:48;-14922.56;;;-144.67;100.00
21877;BME280;11103;43.788;23.710;2023-03-14T06:58:14;-14922.56;;;-144.67;100.00
21877;BME280;11103;43.788;23.710;2023-03-14T07:00:39;-14922.56;;;-144.67;100.00
21877;BME280;11103;43.788;23.710;2023-03-14T07:03:04;-14922.56;;;-144.67;100.00
21877;BME280;11103;43.788;23.710;2023-03-14T07:05:30;-14922.56;;;-144.67;100.00
21877;BME280;11103;43.788;23.710;2023-03-14T07:07:55;-14922.56;;;-144.67;100.00
21877;BME280;11103;43.788;23.710;2023-03-14T07:10:21;-14922.56;;;-144.67;100.00
21877;BME280;11103;43.788;23.710;2023-03-14T07:12:47;-14922.56;;;-144.67;100.00
21877;BME280;11103;43.788;23.710;2023-03-14T07:15:12;-14922.56;;;-144.67;100.00
21877;BME280;11103;43.788;23.710;2023-03-14T07:17:38;-14922.56;;;-144.67;100.00
21877;BME280;11103;43.788;23.710;2023-03-14T07:20:03;-14922.56;;;-144.67;100.00
21877;BME280;11103;43.788;23.710;2023-03-14T07:22:30;-14922.56;;;-144.67;100.00
21877;BME280;11103;43.788;23.710;2023-03-14T07:24:55;-14922.56;;;-144.67;100.00
21877;BME280;11103;43.788;23.710;2023-03-14T07:27:21;-14922.56;;;-144.67;100.00
21877;BME280;11103;43.788;23.710;2023-03-14T07:29:46;-14922.56;;;-144.67;100.00
21877;BME280;11103;43.788;23.710;2023-03-14T07:32:12;-14922.56;;;-144.67;100.00
21877;BME280;11103;43.788;23.710;2023-03-14T07:34:43;-14922.56;;;-144.67;100.00
21877;BME280;11103;43.788;23.710;2023-03-14T07:37:08;-14922.56;;;-144.67;100.00
21877;BME280;11103;43.788;23.710;2023-03-14T07:39:33;-14922.56;;;-144.67;100.00
21877;BME280;11103;43.788;23.710;2023-03-14T07:41:59;-14922.56;;;-144.67;100.00
21877;BME280;11103;43.788;23.710;2023-03-14T07:44:25;-14922.56;;;-144.67;100.00
21877;BME280;11103;43.788;23.710;2023-03-14T07:46:51;-14922.56;;;-144.67;100.00
21877;BME280;11103;43.788;23.710;2023-03-14T07:49:16;-14922.56;;;-144.67;100.00
21877;BME280;11103;43.788;23.710;2023-03-14T07:51:41;-14922.56;;;-144.67;100.00
21877;BME280;11103;43.788;23.710;2023-03-14T07:54:09;-14922.56;;;-144.67;100.00
21877;BME280;11103;43.788;23.710;2023-03-14T07:56:34;-14922.56;;;-144.67;100.00
21877;BME280;11103;43.788;23.710;2023-03-14T07:59:00;-14922.56;;;-144.67;100.00
21877;BME280;11103;43.788;23.710;2023-03-14T08:01:26;-14922.56;;;-144.67;100.00
21877;BME280;11103;43.788;23.710;2023-03-14T08:03:51;-14922.56;;;-144.67;100.00
21877;BME280;11103;43.788;23.710;2023-03-14T08:06:16;-14922.56;;;-144.67;100.00
21877;BME280;11103;43.788;23.710;2023-03-14T08:08:42;-14922.56;;;-144.67;100.00
21877;BME280;11103;43.788;23.710;2023-03-14T08:11:07;-14922.56;;;-144.67;100.00
21877;BME280;11103;43.788;23.710;2023-03-14T08:13:37;-14922.56;;;-144.67;100.00
21877;BME280;11103;43.788;23.710;2023-03-14T08:16:03;-14922.56;;;-144.67;100.00
21877;BME280;11103;43.788;23.710;2023-03-14T08:18:29;-14922.56;;;-144.67;100.00
21877;BME280;11103;43.788;23.710;2023-03-14T08:20:54;-14922.56;;;-144.67;100.00
21877;BME280;11103;43.788;23.710;2023-03-14T08:23:20;-14922.56;;;-144.67;100.00
21877;BME280;11103;43.788;23.710;2023-03-14T08:25:45;-14922.56;;;-144.67;100.00
21877;BME280;11103;43.788;23.710;2023-03-14T08:28:13;-14922.56;;;-144.67;100.00
21877;BME280;11103;43.788;23.710;2023-03-14T08:30:38;-14922.56;;;-144.67;100.00
21877;BME280;11103;43.788;23.710;2023-03-14T08:33:03;-14922.56;;;-144.67;100.00
21877;BME280;11103;43.788;23.710;2023-03-14T08:35:29;-14922.56;;;-144.67;100.00
21877;BME280;11103;43.788;23.710;2023-03-14T08:37:54;-14922.56;;;-144.67;100.00
21877;BME280;11103;43.788;23.710;2023-03-14T08:40:20;-14922.56;;;-144.67;100.00
21877;BME280;11103;43.788;23.710;2023-03-14T08:42:46;-14922.56;;;-144.67;100.00
21877;BME280;11103;43.788;23.710;2023-03-14T08:45:14;-14922.56;;;-144.67;100.00
21877;BME280;11103;43.788;23.710;2023-03-14T08:47:39;-14922.56;;;-144.67;100.00
21877;BME280;11103;43.788;23.710;2023-03-14T08:50:06;-14922.56;;;-144.67;100.00
21877;BME280;11103;43.788;23.710;2023-03-14T08:52:32;-14922.56;;;-144.67;100.00
21877;BME280;11103;43.788;23.710;2023-03-14T08:54:57;-14922.56;;;-144.67;100.00
21877;BME280;11103;43.788;23.710;2023-03-14T08:57:23;-14922.56;;;-144.67;100.00
21877;BME280;11103;43.788;23.710;2023-03-14T08:59:53;-14922.56;;;-144.67;100.00
21877;BME280;11103;43.788;23.710;2023-03-14T09:02:19;-14922.56;;;-144.67;100.00
21877;BME280;11103;43.788;23.710;2023-03-14T09:04:45;-14922.56;;;-144.67;100.00
21877;BME280;11103;43.788;23.710;2023-03-14T09:07:10;-14922.56;;;-144.67;100.00
21877;BME280;11103;43.788;23.710;2023-03-14T09:09:36;-14922.56;;;-144.67;100.00
21877;BME280;11103;43.788;23.710;2023-03-14T09:12:01;-14922.56;;;-144.67;100.00
21877;BME280;11103;43.788;23.710;2023-03-14T09:14:27;-14922.56;;;-144.67;100.00
21877;BME280;11103;43.788;23.710;2023-03-14T09:16:52;-14922.56;;;-144.67;100.00
21877;BME280;11103;43.788;23.710;2023-03-14T09:19:18;-14922.56;;;-144.67;100.00
21877;BME280;11103;43.788;23.710;2023-03-14T09:21:43;-14922.56;;;-144.67;100.00
21877;BME280;11103;43.788;23.710;2023-03-14T09:24:09;-14922.56;;;-144.67;100.00
21877;BME280;11103;43.788;23.710;2023-03-14T09:26:34;-14922.56;;;-144.67;100.00
21877;BME280;11103;43.788;23.710;2023-03-14T09:29:00;-14922.56;;;-144.67;100.00
21877;BME280;11103;43.788;23.710;2023-03-14T09:31:25;-14922.56;;;-144.67;100.00
21877;BME280;11103;43.788;23.710;2023-03-14T09:33:50;-14922.56;;;-144.67;100.00
21877;BME280;11103;43.788;23.710;2023-03-14T09:36:16;-14922.56;;;-144.67;100.00
21877;BME280;11103;43.788;23.710;2023-03-14T09:38:41;-14922.56;;;-144.67;100.00
21877;BME280;11103;43.788;23.710;2023-03-14T09:41:17;-14922.56;;;-144.67;100.00
21877;BME280;11103;43.788;23.710;2023-03-14T09:43:45;-14922.56;;;-144.67;100.00
21877;BME280;11103;43.788;23.710;2023-03-14T09:46:12;-14922.56;;;-144.67;100.00
21877;BME280;11103;43.788;23.710;2023-03-14T09:48:38;-14922.56;;;-144.67;100.00
21877;BME280;11103;43.788;23.710;2023-03-14T09:51:10;-14922.56;;;-144.67;100.00
21877;BME280;11103;43.788;23.710;2023-03-14T09:53:41;-14922.56;;;-144.67;100.00
21877;BME280;11103;43.788;23.710;2023-03-14T09:56:14;-14922.56;;;-144.67;100.00
21877;BME280;11103;43.788;23.710;2023-03-14T09:58:45;-14922.56;;;-144.67;100.00
21877;BME280;11103;43.788;23.710;2023-03-14T10:01:15;-14922.56;;;-144.67;99.80
21877;BME280;11103;43.788;23.710;2023-03-14T10:03:44;-14922.56;;;-144.67;92.48
21877;BME280;11103;43.788;23.710;2023-03-14T10:06:14;-14922.56;;;-144.67;83.16
21877;BME280;11103;43.788;23.710;2023-03-14T10:08:43;-14922.56;;;-144.67;90.78
21877;BME280;11103;43.788;23.710;2023-03-14T10:11:15;-14922.56;;;-144.67;92.57
21877;BME280;11103;43.788;23.710;2023-03-14T10:16:34;-14922.56;;;-144.67;88.97
21877;BME280;11103;43.788;23.710;2023-03-14T10:19:05;-14922.56;;;-144.67;88.69
21877;BME280;11103;43.788;23.710;2023-03-14T10:21:38;-14922.56;;;-144.67;88.88
21877;BME280;11103;43.788;23.710;2023-03-14T10:26:55;-14922.56;;;-144.67;84.53
21877;BME280;11103;43.788;23.710;2023-03-14T10:29:23;-11972.16;;;-144.67;80.10
21877;BME280;11103;43.788;23.710;2023-03-14T10:32:10;-10004.69;;;-144.67;77.96
21877;BME280;11103;43.788;23.710;2023-03-14T10:34:40;-13938.44;;;-144.67;82.54
21877;BME280;11103;43.788;23.710;2023-03-14T10:37:17;-13201.22;;;-144.67;81.14
21877;BME280;11103;43.788;23.710;2023-03-14T10:39:51;-12218.00;;;-144.67;80.48
21877;BME280;11103;43.788;23.710;2023-03-14T10:42:24;-11234.50;;;-144.67;79.60
21877;BME280;11103;43.788;23.710;2023-03-14T10:44:56;-5573.53;;;-144.67;75.27
21877;BME280;11103;43.788;23.710;2023-03-14T10:47:24;-2862.63;;;-144.67;73.65
21877;BME280;11103;43.788;23.710;2023-03-14T10:49:51;-6558.75;;;-144.67;76.17
21877;BME280;11103;43.788;23.710;2023-03-14T10:54:47;25115.69;;;-144.67;64.16
21877;BME280;11103;43.788;23.710;2023-03-14T10:57:12;19650.00;;;-144.67;66.22
21877;BME280;11103;43.788;23.710;2023-03-14T10:59:41;17416.63;;;-144.67;67.24
21877;BME280;11103;43.788;23.710;2023-03-14T11:05:24;32334.22;;;-144.67;65.20
21877;BME280;11103;43.788;23.710;2023-03-14T11:07:55;45817.22;;;-144.67;62.47
21877;BME280;11103;43.788;23.710;2023-03-14T11:10:35;33081.84;;;-144.67;65.78
21877;BME280;11103;43.788;23.710;2023-03-14T11:16:14;61113.16;;;-144.67;61.22
21877;BME280;11103;43.788;23.710;2023-03-14T11:22:14;37820.75;;;-144.67;66.15
21877;BME280;11103;43.788;23.710;2023-03-14T11:25:12;68409.22;;;-144.67;60.58
21877;BME280;11103;43.788;23.710;2023-03-14T11:30:37;65639.91;;;-144.67;61.87
21877;BME280;11103;43.788;23.710;2023-03-14T11:33:16;63124.28;;;-144.67;62.20
21877;BME280;11103;43.788;23.710;2023-03-14T11:35:51;67905.53;;;-144.67;61.56
21877;BME280;11103;43.788;23.710;2023-03-14T11:38:29;86124.31;;;-144.67;58.02
21877;BME280;11103;43.788;23.710;2023-03-14T11:40:57;88439.13;;;-144.67;57.24
21877;BME280;11103;43.788;23.710;2023-03-14T11:43:28;89543.69;;;-144.67;54.19
21877;BME280;11103;43.788;23.710;2023-03-14T11:46:07;89407.06;;;-144.67;48.57
21877;BME280;11103;43.788;23.710;2023-03-14T11:51:36;89302.16;;;-144.67;51.16
21877;BME280;11103;43.788;23.710;2023-03-14T11:54:16;88365.91;;;-144.67;57.90
21877;BME280;11103;43.788;23.710;2023-03-14T11:56:57;89222.97;;;-144.67;54.98
21877;BME280;11103;43.788;23.710;2023-03-14T11:59:27;89341.75;;;-144.67;52.90
21877;BME280;11103;43.788;23.710;2023-03-14T12:01:57;89256.63;;;-144.67;51.46
21877;BME280;11103;43.788;23.710;2023-03-14T12:04:31;89260.56;;;-144.67;52.39
21877;BME280;11103;43.788;23.710;2023-03-14T12:07:07;89278.41;;;-144.67;54.44
21877;BME280;11103;43.788;23.710;2023-03-14T12:09:34;89274.44;;;-144.67;52.25
21877;BME280;11103;43.788;23.710;2023-03-14T12:12:03;89215.03;;;-144.67;50.96
21877;BME280;11103;43.788;23.710;2023-03-14T12:14:31;88872.59;;;-144.67;48.57
21877;BME280;11103;43.788;23.710;2023-03-14T12:19:39;88668.72;;;-144.67;47.64
21877;BME280;11103;43.788;23.710;2023-03-14T12:22:23;88597.47;;;-144.67;47.48
21877;BME280;11103;43.788;23.710;2023-03-14T12:24:54;88577.69;;;-144.67;47.51
21877;BME280;11103;43.788;23.710;2023-03-14T12:30:24;88835.00;;;-144.67;50.11
21877;BME280;11103;43.788;23.710;2023-03-14T12:43:45;88379.75;;;-144.67;47.33
21877;BME280;11103;43.788;23.710;2023-03-14T12:48:47;88617.25;;;-144.67;49.47
21877;BME280;11103;43.788;23.710;2023-03-14T12:51:20;87997.81;;;-144.67;45.71
21877;BME280;11103;43.788;23.710;2023-03-14T12:54:05;88025.53;;;-144.67;45.57
21877;BME280;11103;43.788;23.710;2023-03-14T12:59:58;88201.66;;;-144.67;46.92
21877;BME280;11103;43.788;23.710;2023-03-14T13:02:40;87809.81;;;-144.67;44.94
21877;BME280;11103;43.788;23.710;2023-03-14T13:05:14;87627.78;;;-144.67;43.90
21877;BME280;11103;43.788;23.710;2023-03-14T13:15:37;87904.81;;;-144.67;46.00
21877;BME280;11103;43.788;23.710;2023-03-14T13:20:40;87336.94;;;-144.67;43.05
21877;BME280;11103;43.788;23.710;2023-03-14T13:23:20;87105.44;;;-144.67;42.18
21877;BME280;11103;43.788;23.710;2023-03-14T13:25:45;87141.06;;;-144.67;42.21